Hovedside
METAR-TAF:

METAR-TAF

Lufthavner :

Billund lufthavn

Billund, Danmark

breddegrad: 55-44N, lengdegrad: 009-10E, høyde over havet: 75 m

Gjeldene værobservasjon

Denne rapporten ble laget for 14 minutter siden, klokken 01:20 UTC
Vind 10 kt fra Nordvest
Temperatur 3°C
Luftfuktighet 75%
Trykk 1013 hPa
Sikt 10 km eller mer

METAR: EKBI 110120Z AUTO 31010KT 9999 NCD 03/M01 Q1013

Tid: 02:34 (01:34 UTC)

Varsel

Denne rapporten ble laget for 2 timer og 25 minutter siden, klokken 23:09 UTC
Varsel gyldig fra 11. klokken 00 UTC til 11. klokken 24 UTC
Vind 12 kt fra Vest-nordvest
Sikt 10 km eller mer
Spredte skyer i en høyde av 2000 ft
Blir
fra 11. klokken 10 UTC til 11. klokken 12 UTC
Vind 8 kt fra Nord

TAF: EKBI 102309Z 1100/1124 30012KT 9999 SCT020 BECMG 1110/1112 36008KT

Værobservasjoner og værvarsel for over 4000 flyplasser (METAR- og TAF-rapporter).

Tilgjengelige stasjoner er representert av de røde og gule prikkene på kartet.

Hold musepekeren over prikken for å se navnet på stasjonen.

Klikk så for å se værobservasjoner og -varsler.

For å forandre kartet kan du klikke på den grønne knappen med svart kryss for å zoome inn, på den grønne knappen med strek for å zoome ut, eller på de grønne pilene for å se tilstøtende kart.


METAR-TAF: